Latest Weather Observations for Stenhouse Bay

IDS60801

Issued at 10:32 am CDT Sunday 21 December 2014 (issued every 30 minutes, with the page automatically refreshed every 10 minutes)

About weather observations | Map of weather stations | Latest weather observations for SA | Other Formats
Station Details ID: 022049 Name: STENHOUSE BAY Lat: -35.28 Lon: 136.94 Height: 42.0 m
Data from the previous 72 hours. | See also: Recent months at Stenhouse Bay
Date/Time
CDT
Temp
°C
App
Temp
°C
Dew
Point
Rel
Hum
%
Delta-T
°C
Wind Press
QNH
hPa
Press
MSL
hPa
Rain
since 9 am
mm
Dir
 
Spd
km/h
Gust
km/h
Spd
kts
Gust
kts
21/10:30am 22.8 21.4 15.6 64 4.3 SSE 17 20 9 11 1011.9 1011.8 0.0
21/10:00am 22.3 21.1 16.1 68 3.8 SSE 17 20 9 11 1012.0 1011.9 0.0
21/09:30am 21.5 21.4 16.9 75 2.8 SSE 13 15 7 8 1011.8 1011.7 0.0
21/09:00am 21.2 21.3 16.6 75 2.8 SSE 11 13 6 7 1011.4 1011.3 0.0
21/08:30am 21.6 22.7 17.0 75 2.8 ESE 7 9 4 5 1011.2 1011.1 0.0
21/08:00am 20.9 21.1 16.7 77 2.6 ENE 11 15 6 8 1010.7 1010.6 0.0
21/07:30am 20.1 19.4 16.5 80 2.2 ENE 15 19 8 10 1010.3 1010.2 0.0
21/07:00am 19.2 18.0 16.1 82 1.9 ENE 17 20 9 11 1010.1 1010.0 0.0
21/06:30am 18.5 17.7 16.1 86 1.4 E 15 20 8 11 1010.1 1010.0 0.0
21/06:00am 18.2 17.4 16.0 87 1.3 E 15 19 8 10 1010.3 1010.2 0.0
21/05:30am 18.1 16.9 16.1 88 1.2 E 17 22 9 12 1010.4 1010.3 0.0
21/05:00am 17.9 16.0 15.7 87 1.3 E 20 24 11 13 1010.6 1010.5 0.0
21/04:30am 17.8 16.2 16.0 89 1.1 E 19 22 10 12 1010.7 1010.6 0.0
21/04:00am 17.5 15.8 15.8 90 1.0 ESE 19 22 10 12 1010.8 1010.7 0.0
21/03:30am 17.8 15.8 15.6 87 1.3 E 20 24 11 13 1011.1 1011.0 0.0
21/03:00am 17.7 15.7 15.5 87 1.3 E 20 24 11 13 1011.5 1011.4 0.0
21/02:30am 17.7 15.9 15.5 87 1.3 ESE 19 22 10 12 1011.8 1011.7 0.0
21/02:00am 17.7 15.7 15.5 87 1.3 ESE 20 28 11 15 1012.0 1011.9 0.0
21/01:30am 17.7 14.1 15.3 86 1.4 ESE 28 35 15 19 1012.0 1011.9 0.0
21/01:00am 17.8 14.5 15.1 84 1.6 E 26 35 14 19 1012.5 1012.4 0.0
21/12:30am 17.6 15.3 14.7 83 1.7 ESE 20 26 11 14 1013.1 1013.0 0.0
21/12:00am 17.5 14.7 14.2 81 1.9 ESE 22 28 12 15 1013.0 1012.9 0.0
 
Date/Time
CDT
Temp
°C
App
Temp
°C
Dew
Point
Rel
Hum
%
Delta-T
°C
Wind Press
QNH
hPa
Press
MSL
hPa
Rain
since 9 am
mm
Dir
 
Spd
km/h
Gust
km/h
Spd
kts
Gust
kts
20/11:30pm 17.5 14.7 14.2 81 1.9 ESE 22 28 12 15 1013.3 1013.2 0.0
20/11:00pm 17.6 13.8 13.7 78 2.2 ESE 26 32 14 17 1013.4 1013.3 0.0
20/10:30pm 17.8 13.5 13.3 75 2.5 ESE 28 33 15 18 1013.7 1013.6 0.0
20/10:00pm 18.0 13.6 12.9 72 2.9 ESE 28 33 15 18 1014.0 1013.9 0.0
20/09:30pm 18.6 14.2 13.0 70 3.2 ESE 28 35 15 19 1014.0 1013.9 0.0
20/09:00pm 18.8 15.5 15.1 79 2.2 ESE 26 33 14 18 1014.1 1014.0 0.0
20/08:30pm 19.0 16.2 15.3 79 2.2 E 24 32 13 17 1014.2 1014.1 0.0
20/08:00pm 19.3 16.4 15.2 77 2.4 E 24 32 13 17 1014.1 1014.0 0.0
20/07:30pm 20.1 18.2 15.1 73 2.9 E 19 24 10 13 1014.3 1014.2 0.0
20/07:00pm 21.2 19.9 14.8 67 3.8 ESE 15 19 8 10 1014.4 1014.3 0.0
20/06:30pm 21.5 20.0 14.2 63 4.3 ESE 15 19 8 10 1014.1 1014.0 0.0
20/06:00pm 22.0 20.8 13.9 60 4.7 ESE 13 19 7 10 1014.2 1014.1 0.0
20/05:30pm 22.1 20.1 14.0 60 4.7 ESE 17 22 9 12 1014.2 1014.1 0.0
20/05:00pm 22.4 20.3 13.7 58 5.1 ESE 17 20 9 11 1014.7 1014.6 0.0
20/04:30pm 21.9 20.0 13.0 57 5.1 ESE 15 17 8 9 1015.3 1015.2 0.0
20/04:00pm 21.8 19.7 12.4 55 5.3 E 15 19 8 10 1015.5 1015.4 0.0
20/03:30pm 21.7 19.4 11.7 53 5.6 E 15 19 8 10 1015.7 1015.6 0.0
20/03:00pm 21.9 19.2 11.6 52 5.8 E 17 20 9 11 1016.2 1016.1 0.0
20/02:30pm 22.0 19.9 12.3 54 5.5 E 15 20 8 11 1016.7 1016.6 0.0
20/02:00pm 21.8 19.6 12.1 54 5.5 E 15 20 8 11 1017.1 1017.0 0.0
20/01:30pm 22.0 19.7 13.1 57 5.1 E 17 20 9 11 1017.6 1017.5 0.0
20/01:00pm 21.1 18.7 12.5 58 4.9 E 17 20 9 11 1018.1 1018.0 0.0
20/12:30pm 20.5 18.3 12.2 59 4.6 E 15 19 8 10 1018.5 1018.4 0.0
20/12:00pm 20.6 18.4 12.1 58 4.8 E 15 19 8 10 1018.9 1018.8 0.0
20/11:30am 20.5 18.3 12.0 58 4.7 ESE 15 20 8 11 1019.0 1018.9 0.0
20/11:00am 20.7 18.0 11.6 56 5.1 ESE 17 20 9 11 1019.1 1019.0 0.0
20/10:30am 20.2 17.6 11.9 59 4.6 E 17 20 9 11 1019.2 1019.1 0.0
20/10:00am 20.2 18.4 12.2 60 4.5 ESE 13 19 7 10 1019.6 1019.5 0.0
20/09:30am 19.6 17.7 11.9 61 4.3 E 13 19 7 10 1019.9 1019.8 0.0
20/09:00am 19.5 17.7 12.0 62 4.2 E 13 17 7 9 1019.8 1019.7 0.0
20/08:30am 18.4 16.8 11.7 65 3.7 E 11 15 6 8 1019.8 1019.7 0.0
20/08:00am 18.1 16.5 11.7 66 3.5 E 11 17 6 9 1019.4 1019.3 0.0
20/07:30am 17.5 15.2 11.8 69 3.1 ESE 15 19 8 10 1018.9 1018.8 0.0
20/07:00am 15.6 15.2 11.2 75 2.4 NE 4 11 2 6 1019.0 1018.9 0.0
20/06:30am 13.8 14.0 10.4 80 1.8 CALM 0 2 0 1 1019.0 1018.9 0.0
20/06:00am 14.3 14.1 10.3 77 2.1 NNW 2 9 1 5 1019.0 1018.9 0.0
20/05:30am 15.6 13.6 11.4 76 2.3 E 13 17 7 9 1018.8 1018.7 0.0
20/05:00am 15.5 13.4 11.3 76 2.3 E 13 19 7 10 1018.6 1018.5 0.0
20/04:30am 15.3 12.4 11.1 76 2.2 ESE 17 20 9 11 1018.1 1018.0 0.0
20/04:00am 15.4 12.9 11.2 76 2.2 ESE 15 20 8 11 1018.3 1018.2 0.0
20/03:30am 15.3 12.0 10.9 75 2.3 ESE 19 24 10 13 1018.1 1018.0 0.0
20/03:00am 15.4 11.9 10.8 74 2.4 ESE 20 24 11 13 1018.4 1018.3 0.0
20/02:30am 15.4 12.2 11.2 76 2.2 ESE 19 24 10 13 1018.7 1018.6 0.0
20/02:00am 15.4 11.9 10.8 74 2.4 SE 20 26 11 14 1019.0 1018.9 0.0
20/01:30am 15.5 12.2 10.9 74 2.4 SE 19 22 10 12 1019.6 1019.5 0.0
20/01:00am 15.5 12.1 10.7 73 2.5 SE 19 24 10 13 1020.1 1020.0 0.0
20/12:30am 15.6 12.6 10.8 73 2.5 SE 17 22 9 12 1020.4 1020.3 0.0
20/12:00am 15.7 12.7 10.7 72 2.6 SE 17 26 9 14 1020.6 1020.5 0.0
 
Date/Time
CDT
Temp
°C
App
Temp
°C
Dew
Point
Rel
Hum
%
Delta-T
°C
Wind Press
QNH
hPa
Press
MSL
hPa
Rain
since 9 am
mm
Dir
 
Spd
km/h
Gust
km/h
Spd
kts
Gust
kts
19/11:30pm 15.8 12.7 10.3 70 2.9 SSE 17 24 9 13 1020.7 1020.6 0.0
19/11:00pm 16.1 12.7 10.4 69 3.0 SE 19 24 10 13 1021.0 1020.9 0.0
19/10:30pm 16.6 13.1 10.2 66 3.4 SSE 19 24 10 13 1021.0 1020.9 0.0
19/10:00pm 17.2 14.2 10.6 65 3.5 SE 17 22 9 12 1020.9 1020.8 0.0
19/09:30pm 17.2 14.6 11.9 71 2.9 SSE 17 22 9 12 1020.8 1020.7 0.0
19/09:00pm 16.6 12.5 11.3 71 2.9 SSW 24 32 13 17 1020.7 1020.6 0.0
19/08:30pm 16.7 12.6 11.6 72 2.8 SSW 24 33 13 18 1020.6 1020.5 0.0
19/08:00pm 16.9 12.7 11.0 68 3.2 SW 24 32 13 17 1020.6 1020.5 0.0
19/07:30pm 17.3 12.7 10.9 66 3.4 SW 26 35 14 19 1020.5 1020.4 0.0
19/07:00pm 17.9 12.9 11.0 64 3.7 SW 28 37 15 20 1020.4 1020.3 0.0
19/06:30pm 18.3 13.2 10.7 61 4.1 SW 28 35 15 19 1020.5 1020.4 0.0
19/06:00pm 18.8 14.1 10.6 59 4.4 SW 26 35 14 19 1020.3 1020.2 0.0
19/05:30pm 19.1 14.2 10.1 56 4.8 SW 26 33 14 18 1020.2 1020.1 0.0
19/05:00pm 19.3 14.4 9.8 54 5.1 SW 26 35 14 19 1020.3 1020.2 0.0
19/04:30pm 20.0 15.1 10.1 53 5.3 SW 26 33 14 18 1020.4 1020.3 0.0
19/04:00pm 19.9 15.3 9.8 52 5.4 SW 24 33 13 18 1020.7 1020.6 0.0
19/03:30pm 20.6 16.5 10.1 51 5.7 SW 22 30 12 16 1020.8 1020.7 0.0
19/03:00pm 20.2 16.4 9.7 51 5.6 SW 20 28 11 15 1021.0 1020.9 0.0
19/02:30pm 20.8 17.3 10.3 51 5.7 SW 19 24 10 13 1021.1 1021.0 0.0
19/02:00pm 20.1 16.9 9.9 52 5.5 SW 17 24 9 13 1021.1 1021.0 0.0
19/01:30pm 19.9 16.6 9.5 51 5.5 SW 17 24 9 13 1021.2 1021.1 0.0
19/01:00pm 19.8 16.5 9.4 51 5.5 SW 17 22 9 12 1021.4 1021.3 0.0
19/12:30pm 19.6 17.0 9.5 52 5.3 SW 13 19 7 10 1021.8 1021.7 0.0
19/12:00pm 19.3 16.9 8.6 50 5.6 SW 11 17 6 9 1022.0 1021.9 0.0
19/11:30am 19.3 16.9 8.6 50 5.6 SW 11 19 6 10 1022.0 1021.9 0.0
19/11:00am 19.1 16.7 8.7 51 5.4 SSW 11 15 6 8 1021.9 1021.8 0.0
19/10:30am 18.4 16.4 8.7 53 5.0 S 9 15 5 8 1021.7 1021.6 0.0
19/10:00am 18.2 16.1 8.2 52 5.1 SSW 9 13 5 7 1021.6 1021.5 0.0
19/09:30am 17.6 15.4 7.9 53 4.9 S 9 15 5 8 1021.3 1021.2 0.0
19/09:00am 17.4 14.9 8.0 54 4.8 S 11 17 6 9 1020.8 1020.7 0.8
19/08:30am 17.0 14.1 8.2 56 4.5 S 13 17 7 9 1020.4 1020.3 0.8
19/08:00am 16.7 13.5 8.4 58 4.2 S 15 20 8 11 1020.0 1019.9 0.8
19/07:30am 16.0 12.2 7.7 58 4.1 S 17 20 9 11 1019.6 1019.5 0.8
19/07:00am 15.5 11.8 8.0 61 3.8 S 17 22 9 12 1019.3 1019.2 0.8
19/06:30am 14.8 11.1 7.8 63 3.5 S 17 22 9 12 1018.8 1018.7 0.8
19/06:00am 14.6 10.5 7.9 64 3.3 S 19 24 10 13 1018.5 1018.4 0.8
19/05:30am 14.7 10.8 8.6 67 3.1 S 19 24 10 13 1018.3 1018.2 0.8
19/05:00am 14.7 11.1 8.4 66 3.2 SSW 17 24 9 13 1018.5 1018.4 0.8
19/04:30am 14.7 10.6 7.7 63 3.5 S 19 24 10 13 1018.3 1018.2 0.8
19/04:00am 14.7 10.4 6.8 59 3.9 S 19 24 10 13 1018.3 1018.2 0.8
19/03:30am 14.8 10.4 7.4 61 3.6 SSW 20 28 11 15 1018.3 1018.2 0.8
19/03:00am 14.8 10.8 8.3 65 3.3 SSW 19 26 10 14 1018.4 1018.3 0.8
19/02:30am 14.8 10.7 7.8 63 3.5 S 19 24 10 13 1018.3 1018.2 0.8
19/02:00am 15.1 10.5 8.1 63 3.5 S 22 28 12 15 1018.5 1018.4 0.8
19/01:30am 15.1 10.9 8.3 64 3.4 SSW 20 28 11 15 1018.6 1018.5 0.8
19/01:00am 15.2 10.8 7.3 59 3.9 S 20 26 11 14 1018.6 1018.5 0.8
19/12:30am 15.2 10.5 7.7 61 3.7 SSW 22 30 12 16 1018.5 1018.4 0.8
19/12:00am 15.3 11.6 8.1 62 3.6 SSW 17 24 9 13 1018.3 1018.2 0.8
 
Date/Time
CDT
Temp
°C
App
Temp
°C
Dew
Point
Rel
Hum
%
Delta-T
°C
Wind Press
QNH
hPa
Press
MSL
hPa
Rain
since 9 am
mm
Dir
 
Spd
km/h
Gust
km/h
Spd
kts
Gust
kts
18/11:30pm 15.4 11.4 8.2 62 3.6 SSW 19 30 10 16 1018.3 1018.2 0.8
18/11:00pm 15.6 11.4 8.4 62 3.7 SSW 20 26 11 14 1018.2 1018.1 0.8
18/10:30pm 15.7 11.4 8.0 60 3.9 SSW 20 32 11 17 1018.1 1018.0 0.8
18/10:00pm 15.8 11.7 8.5 62 3.7 SSW 20 28 11 15 1017.9 1017.8 0.8
18/09:30pm 15.7 11.4 8.0 60 3.9 SW 20 30 11 16 1017.5 1017.4 0.8
18/09:00pm 15.8 11.0 7.3 57 4.2 SW 22 32 12 17 1017.3 1017.2 0.8
18/08:30pm 15.9 11.3 8.2 60 3.9 SW 22 32 12 17 1017.0 1016.9 0.8
18/08:00pm 16.2 11.3 8.4 60 4.0 SW 24 33 13 18 1016.9 1016.8 0.8
18/07:30pm 16.9 11.5 8.1 56 4.5 SW 26 39 14 21 1016.4 1016.3 0.8
18/07:00pm 17.3 11.9 8.2 55 4.6 SW 26 37 14 20 1015.9 1015.8 0.8
18/06:30pm 18.0 13.6 8.8 55 4.8 SW 22 35 12 19 1015.6 1015.5 0.8
18/06:00pm 18.3 13.5 8.8 54 4.9 SW 24 37 13 20 1015.3 1015.2 0.8
18/05:30pm 18.9 13.9 9.4 54 5.0 SW 26 37 14 20 1015.1 1015.0 0.8
18/05:00pm 19.6 15.6 10.3 55 5.0 SW 22 37 12 20 1014.9 1014.8 0.8
18/04:30pm 19.8 15.0 10.2 54 5.2 SW 26 37 14 20 1014.6 1014.5 0.8
18/04:00pm 19.2 14.2 9.4 53 5.2 SW 26 39 14 21 1014.6 1014.5 0.8
18/03:30pm 19.5 15.4 10.2 55 5.0 SW 22 30 12 16 1014.1 1014.0 0.8
18/03:00pm 19.1 13.8 9.9 55 4.9 SW 28 37 15 20 1013.9 1013.8 0.8
18/02:30pm 20.1 15.1 10.8 55 5.1 SW 28 37 15 20 1013.7 1013.6 0.8
18/02:00pm 19.3 14.5 11.8 62 4.2 SW 28 39 15 21 1013.7 1013.6 0.8
18/01:30pm 20.4 15.4 10.8 54 5.2 SW 28 37 15 20 1013.5 1013.4 0.8
18/01:00pm 20.5 16.6 12.0 58 4.8 SW 24 35 13 19 1013.5 1013.4 0.8
18/12:30pm 20.6 15.8 11.8 57 4.9 SW 28 39 15 21 1013.2 1013.1 0.8
18/12:00pm 20.1 14.7 10.8 55 5.1 SW 30 43 16 23 1013.0 1012.9 0.8
18/11:30am 19.3 14.3 10.8 58 4.6 WSW 28 37 15 20 1012.7 1012.6 0.8
18/11:00am 19.2 14.0 11.7 62 4.1 SW 30 41 16 22 1012.5 1012.4 0.8

Other Formats:

Comma delimited format used in spreadsheet applications
http://www.bom.gov.au/fwo/IDS60801/IDS60801.95806.axf

JavaScript Object Notation format (JSON) in row-major order
http://www.bom.gov.au/fwo/IDS60801/IDS60801.95806.json